sensor_id;sensor_type;location;lat;lon;timestamp;P1;durP1;ratioP1;P2;durP2;ratioP2
22378;SDS011;11357;49.990;7.370;2022-07-06T00:01:39;61.60;;;16.40;;
22378;SDS011;11357;49.990;7.370;2022-07-06T00:04:05;84.40;;;25.00;;
22378;SDS011;11357;49.990;7.370;2022-07-06T00:06:31;61.70;;;20.40;;
22378;SDS011;11357;49.990;7.370;2022-07-06T00:08:57;63.77;;;17.57;;
22378;SDS011;11357;49.990;7.370;2022-07-06T00:11:23;71.47;;;21.83;;
22378;SDS011;11357;49.990;7.370;2022-07-06T00:13:49;63.53;;;19.53;;
22378;SDS011;11357;49.990;7.370;2022-07-06T00:16:15;61.70;;;21.33;;
22378;SDS011;11357;49.990;7.370;2022-07-06T00:18:41;59.80;;;19.67;;
22378;SDS011;11357;49.990;7.370;2022-07-06T00:21:06;64.37;;;19.80;;
22378;SDS011;11357;49.990;7.370;2022-07-06T00:23:32;53.53;;;17.37;;
22378;SDS011;11357;49.990;7.370;2022-07-06T00:25:58;73.87;;;21.63;;
22378;SDS011;11357;49.990;7.370;2022-07-06T00:28:24;53.87;;;18.87;;
22378;SDS011;11357;49.990;7.370;2022-07-06T00:30:50;53.43;;;18.93;;
22378;SDS011;11357;49.990;7.370;2022-07-06T00:33:15;75.57;;;25.17;;
22378;SDS011;11357;49.990;7.370;2022-07-06T00:35:41;65.63;;;17.23;;
22378;SDS011;11357;49.990;7.370;2022-07-06T00:38:07;61.83;;;18.67;;
22378;SDS011;11357;49.990;7.370;2022-07-06T00:40:32;71.07;;;23.97;;
22378;SDS011;11357;49.990;7.370;2022-07-06T00:42:58;63.90;;;19.07;;
22378;SDS011;11357;49.990;7.370;2022-07-06T00:45:24;75.37;;;25.53;;
22378;SDS011;11357;49.990;7.370;2022-07-06T00:47:49;73.53;;;23.70;;
22378;SDS011;11357;49.990;7.370;2022-07-06T00:50:16;59.90;;;23.80;;
22378;SDS011;11357;49.990;7.370;2022-07-06T00:52:48;135.47;;;59.43;;
22378;SDS011;11357;49.990;7.370;2022-07-06T00:55:28;68.93;;;27.77;;
22378;SDS011;11357;49.990;7.370;2022-07-06T00:57:55;61.93;;;20.20;;
22378;SDS011;11357;49.990;7.370;2022-07-06T01:00:24;66.77;;;24.93;;
22378;SDS011;11357;49.990;7.370;2022-07-06T01:02:51;76.93;;;25.73;;
22378;SDS011;11357;49.990;7.370;2022-07-06T01:05:17;62.90;;;16.70;;
22378;SDS011;11357;49.990;7.370;2022-07-06T01:07:45;64.83;;;26.87;;
22378;SDS011;11357;49.990;7.370;2022-07-06T01:10:13;73.07;;;23.83;;
22378;SDS011;11357;49.990;7.370;2022-07-06T01:12:41;72.13;;;23.07;;
22378;SDS011;11357;49.990;7.370;2022-07-06T01:15:13;68.40;;;19.63;;
22378;SDS011;11357;49.990;7.370;2022-07-06T01:17:49;70.50;;;25.47;;
22378;SDS011;11357;49.990;7.370;2022-07-06T01:20:22;71.50;;;22.07;;
22378;SDS011;11357;49.990;7.370;2022-07-06T01:22:51;56.70;;;16.87;;
22378;SDS011;11357;49.990;7.370;2022-07-06T01:25:18;69.63;;;21.37;;
22378;SDS011;11357;49.990;7.370;2022-07-06T01:27:45;64.83;;;22.47;;
22378;SDS011;11357;49.990;7.370;2022-07-06T01:30:12;60.90;;;19.33;;
22378;SDS011;11357;49.990;7.370;2022-07-06T01:32:39;62.27;;;18.57;;
22378;SDS011;11357;49.990;7.370;2022-07-06T01:35:06;61.60;;;18.53;;
22378;SDS011;11357;49.990;7.370;2022-07-06T01:37:34;70.97;;;23.50;;
22378;SDS011;11357;49.990;7.370;2022-07-06T01:40:00;68.77;;;24.60;;
22378;SDS011;11357;49.990;7.370;2022-07-06T01:42:30;58.00;;;22.10;;
22378;SDS011;11357;49.990;7.370;2022-07-06T01:44:55;82.67;;;27.70;;
22378;SDS011;11357;49.990;7.370;2022-07-06T01:47:22;60.70;;;19.30;;
22378;SDS011;11357;49.990;7.370;2022-07-06T01:49:48;73.67;;;28.67;;
22378;SDS011;11357;49.990;7.370;2022-07-06T01:52:14;62.67;;;24.80;;
22378;SDS011;11357;49.990;7.370;2022-07-06T01:54:40;58.97;;;25.40;;
22378;SDS011;11357;49.990;7.370;2022-07-06T01:57:06;73.47;;;23.67;;
22378;SDS011;11357;49.990;7.370;2022-07-06T01:59:32;61.83;;;23.27;;
22378;SDS011;11357;49.990;7.370;2022-07-06T02:01:57;76.17;;;21.60;;
22378;SDS011;11357;49.990;7.370;2022-07-06T02:04:23;59.10;;;23.80;;
22378;SDS011;11357;49.990;7.370;2022-07-06T02:06:49;67.87;;;26.23;;
22378;SDS011;11357;49.990;7.370;2022-07-06T02:09:15;58.77;;;21.07;;
22378;SDS011;11357;49.990;7.370;2022-07-06T02:11:41;63.23;;;21.57;;
22378;SDS011;11357;49.990;7.370;2022-07-06T02:14:07;60.17;;;23.23;;
22378;SDS011;11357;49.990;7.370;2022-07-06T02:16:33;72.10;;;26.97;;
22378;SDS011;11357;49.990;7.370;2022-07-06T02:18:59;70.07;;;28.03;;
22378;SDS011;11357;49.990;7.370;2022-07-06T02:21:25;75.40;;;27.03;;
22378;SDS011;11357;49.990;7.370;2022-07-06T02:23:51;60.73;;;22.77;;
22378;SDS011;11357;49.990;7.370;2022-07-06T02:26:17;63.37;;;22.73;;
22378;SDS011;11357;49.990;7.370;2022-07-06T02:28:42;64.83;;;23.33;;
22378;SDS011;11357;49.990;7.370;2022-07-06T02:31:10;64.87;;;22.40;;
22378;SDS011;11357;49.990;7.370;2022-07-06T02:33:38;59.40;;;21.37;;
22378;SDS011;11357;49.990;7.370;2022-07-06T02:36:04;77.37;;;20.93;;
22378;SDS011;11357;49.990;7.370;2022-07-06T02:38:30;64.43;;;22.47;;
22378;SDS011;11357;49.990;7.370;2022-07-06T02:40:56;77.43;;;31.37;;
22378;SDS011;11357;49.990;7.370;2022-07-06T02:43:21;72.97;;;22.53;;
22378;SDS011;11357;49.990;7.370;2022-07-06T02:45:47;61.73;;;19.90;;
22378;SDS011;11357;49.990;7.370;2022-07-06T02:48:13;72.23;;;25.20;;
22378;SDS011;11357;49.990;7.370;2022-07-06T02:50:39;62.87;;;24.43;;
22378;SDS011;11357;49.990;7.370;2022-07-06T02:53:04;74.47;;;23.00;;
22378;SDS011;11357;49.990;7.370;2022-07-06T02:55:30;67.63;;;21.47;;
22378;SDS011;11357;49.990;7.370;2022-07-06T02:57:56;70.73;;;21.37;;
22378;SDS011;11357;49.990;7.370;2022-07-06T03:00:22;67.93;;;20.07;;
22378;SDS011;11357;49.990;7.370;2022-07-06T03:02:47;78.87;;;27.50;;
22378;SDS011;11357;49.990;7.370;2022-07-06T03:05:13;63.70;;;22.53;;
22378;SDS011;11357;49.990;7.370;2022-07-06T03:07:39;71.10;;;22.67;;
22378;SDS011;11357;49.990;7.370;2022-07-06T03:10:04;74.97;;;24.43;;
22378;SDS011;11357;49.990;7.370;2022-07-06T03:12:30;70.00;;;26.17;;
22378;SDS011;11357;49.990;7.370;2022-07-06T03:14:56;70.60;;;29.90;;
22378;SDS011;11357;49.990;7.370;2022-07-06T03:17:21;78.57;;;31.37;;
22378;SDS011;11357;49.990;7.370;2022-07-06T03:19:47;57.90;;;22.97;;
22378;SDS011;11357;49.990;7.370;2022-07-06T03:22:13;75.47;;;30.67;;
22378;SDS011;11357;49.990;7.370;2022-07-06T03:24:39;78.13;;;22.30;;
22378;SDS011;11357;49.990;7.370;2022-07-06T03:27:04;59.13;;;26.60;;
22378;SDS011;11357;49.990;7.370;2022-07-06T03:29:30;63.10;;;22.13;;
22378;SDS011;11357;49.990;7.370;2022-07-06T03:31:56;68.23;;;21.30;;
22378;SDS011;11357;49.990;7.370;2022-07-06T03:34:21;73.43;;;26.97;;
22378;SDS011;11357;49.990;7.370;2022-07-06T03:36:47;77.57;;;26.57;;
22378;SDS011;11357;49.990;7.370;2022-07-06T03:39:13;64.93;;;28.03;;
22378;SDS011;11357;49.990;7.370;2022-07-06T03:41:38;69.23;;;27.93;;
22378;SDS011;11357;49.990;7.370;2022-07-06T03:44:04;73.80;;;23.00;;
22378;SDS011;11357;49.990;7.370;2022-07-06T03:46:30;68.40;;;27.60;;
22378;SDS011;11357;49.990;7.370;2022-07-06T03:48:56;74.13;;;25.90;;
22378;SDS011;11357;49.990;7.370;2022-07-06T03:51:22;71.00;;;29.57;;
22378;SDS011;11357;49.990;7.370;2022-07-06T03:53:47;71.57;;;24.53;;
22378;SDS011;11357;49.990;7.370;2022-07-06T03:56:13;69.53;;;22.77;;
22378;SDS011;11357;49.990;7.370;2022-07-06T03:58:54;80.07;;;25.53;;
22378;SDS011;11357;49.990;7.370;2022-07-06T04:01:24;97.67;;;32.50;;
22378;SDS011;11357;49.990;7.370;2022-07-06T04:03:50;75.97;;;28.60;;
22378;SDS011;11357;49.990;7.370;2022-07-06T04:06:16;68.10;;;26.13;;
22378;SDS011;11357;49.990;7.370;2022-07-06T04:08:42;72.57;;;28.23;;
22378;SDS011;11357;49.990;7.370;2022-07-06T04:11:08;62.63;;;22.67;;
22378;SDS011;11357;49.990;7.370;2022-07-06T04:13:34;65.87;;;24.57;;
22378;SDS011;11357;49.990;7.370;2022-07-06T04:15:59;80.00;;;22.40;;
22378;SDS011;11357;49.990;7.370;2022-07-06T04:18:25;59.60;;;18.30;;
22378;SDS011;11357;49.990;7.370;2022-07-06T04:20:51;74.10;;;26.23;;
22378;SDS011;11357;49.990;7.370;2022-07-06T04:23:17;64.53;;;25.67;;
22378;SDS011;11357;49.990;7.370;2022-07-06T04:25:42;69.53;;;23.77;;
22378;SDS011;11357;49.990;7.370;2022-07-06T04:28:08;81.90;;;38.70;;
22378;SDS011;11357;49.990;7.370;2022-07-06T04:30:34;91.83;;;31.93;;
22378;SDS011;11357;49.990;7.370;2022-07-06T04:33:00;81.07;;;30.13;;
22378;SDS011;11357;49.990;7.370;2022-07-06T04:35:26;85.90;;;34.23;;
22378;SDS011;11357;49.990;7.370;2022-07-06T04:37:52;95.77;;;41.57;;
22378;SDS011;11357;49.990;7.370;2022-07-06T04:40:17;103.60;;;35.40;;
22378;SDS011;11357;49.990;7.370;2022-07-06T04:42:43;84.77;;;29.30;;
22378;SDS011;11357;49.990;7.370;2022-07-06T04:45:09;92.37;;;29.63;;
22378;SDS011;11357;49.990;7.370;2022-07-06T04:47:35;115.73;;;47.80;;
22378;SDS011;11357;49.990;7.370;2022-07-06T04:50:02;64.57;;;23.67;;
22378;SDS011;11357;49.990;7.370;2022-07-06T04:52:28;102.00;;;50.40;;
22378;SDS011;11357;49.990;7.370;2022-07-06T04:54:54;83.80;;;27.20;;
22378;SDS011;11357;49.990;7.370;2022-07-06T04:57:20;62.30;;;32.00;;
22378;SDS011;11357;49.990;7.370;2022-07-06T04:59:46;64.47;;;26.27;;
22378;SDS011;11357;49.990;7.370;2022-07-06T05:02:12;80.60;;;35.47;;
22378;SDS011;11357;49.990;7.370;2022-07-06T05:04:38;112.37;;;57.90;;
22378;SDS011;11357;49.990;7.370;2022-07-06T05:07:04;136.17;;;64.83;;
22378;SDS011;11357;49.990;7.370;2022-07-06T05:09:29;126.37;;;63.13;;
22378;SDS011;11357;49.990;7.370;2022-07-06T05:11:55;164.83;;;98.90;;
22378;SDS011;11357;49.990;7.370;2022-07-06T05:14:21;173.97;;;103.37;;
22378;SDS011;11357;49.990;7.370;2022-07-06T05:16:47;207.57;;;114.60;;
22378;SDS011;11357;49.990;7.370;2022-07-06T05:19:12;147.87;;;81.20;;
22378;SDS011;11357;49.990;7.370;2022-07-06T05:21:38;143.93;;;83.80;;
22378;SDS011;11357;49.990;7.370;2022-07-06T05:24:04;386.70;;;183.60;;
22378;SDS011;11357;49.990;7.370;2022-07-06T05:26:30;232.03;;;124.13;;
22378;SDS011;11357;49.990;7.370;2022-07-06T05:28:55;163.67;;;108.87;;
22378;SDS011;11357;49.990;7.370;2022-07-06T05:31:21;437.70;;;199.47;;
22378;SDS011;11357;49.990;7.370;2022-07-06T05:33:47;274.33;;;153.50;;
22378;SDS011;11357;49.990;7.370;2022-07-06T05:36:12;299.40;;;189.93;;
22378;SDS011;11357;49.990;7.370;2022-07-06T05:38:38;1113.67;;;455.00;;
22378;SDS011;11357;49.990;7.370;2022-07-06T05:41:04;1601.67;;;512.83;;
22378;SDS011;11357;49.990;7.370;2022-07-06T05:43:29;369.80;;;329.43;;
22378;SDS011;11357;49.990;7.370;2022-07-06T05:45:55;328.67;;;272.03;;
22378;SDS011;11357;49.990;7.370;2022-07-06T05:48:21;1480.07;;;778.97;;
22378;SDS011;11357;49.990;7.370;2022-07-06T05:51:05;1088.10;;;766.87;;
22378;SDS011;11357;49.990;7.370;2022-07-06T05:53:30;1996.73;;;672.80;;
22378;SDS011;11357;49.990;7.370;2022-07-06T05:55:56;1999.90;;;869.17;;
22378;SDS011;11357;49.990;7.370;2022-07-06T05:58:22;1999.90;;;595.33;;
22378;SDS011;11357;49.990;7.370;2022-07-06T06:00:50;1999.90;;;857.00;;
22378;SDS011;11357;49.990;7.370;2022-07-06T06:03:16;914.00;;;653.53;;
22378;SDS011;11357;49.990;7.370;2022-07-06T06:05:41;1933.93;;;788.30;;
22378;SDS011;11357;49.990;7.370;2022-07-06T06:08:07;966.07;;;768.57;;
22378;SDS011;11357;49.990;7.370;2022-07-06T06:10:33;952.50;;;726.57;;
22378;SDS011;11357;49.990;7.370;2022-07-06T06:12:59;1514.03;;;501.00;;
22378;SDS011;11357;49.990;7.370;2022-07-06T06:15:24;861.90;;;378.93;;
22378;SDS011;11357;49.990;7.370;2022-07-06T06:17:50;1999.90;;;680.87;;
22378;SDS011;11357;49.990;7.370;2022-07-06T06:20:16;1999.90;;;604.50;;
22378;SDS011;11357;49.990;7.370;2022-07-06T06:22:45;1999.90;;;601.40;;
22378;SDS011;11357;49.990;7.370;2022-07-06T06:25:15;1192.83;;;700.80;;
22378;SDS011;11357;49.990;7.370;2022-07-06T06:27:43;1412.73;;;517.87;;
22378;SDS011;11357;49.990;7.370;2022-07-06T06:30:09;1999.90;;;786.27;;
22378;SDS011;11357;49.990;7.370;2022-07-06T06:32:36;1512.27;;;501.27;;
22378;SDS011;11357;49.990;7.370;2022-07-06T06:35:02;1990.90;;;514.17;;
22378;SDS011;11357;49.990;7.370;2022-07-06T06:37:29;1637.33;;;407.13;;
22378;SDS011;11357;49.990;7.370;2022-07-06T06:39:54;1999.90;;;886.00;;
22378;SDS011;11357;49.990;7.370;2022-07-06T06:42:20;1524.23;;;254.80;;
22378;SDS011;11357;49.990;7.370;2022-07-06T06:44:46;1166.73;;;236.50;;
22378;SDS011;11357;49.990;7.370;2022-07-06T06:47:12;1912.47;;;614.17;;
22378;SDS011;11357;49.990;7.370;2022-07-06T06:49:37;1566.73;;;530.37;;
22378;SDS011;11357;49.990;7.370;2022-07-06T06:52:03;931.53;;;164.73;;
22378;SDS011;11357;49.990;7.370;2022-07-06T06:54:29;1999.90;;;783.63;;
22378;SDS011;11357;49.990;7.370;2022-07-06T06:56:55;1910.73;;;796.93;;
22378;SDS011;11357;49.990;7.370;2022-07-06T06:59:20;1270.17;;;233.60;;
22378;SDS011;11357;49.990;7.370;2022-07-06T07:01:46;1427.00;;;447.13;;
22378;SDS011;11357;49.990;7.370;2022-07-06T08:34:42;517.70;;;444.57;;
22378;SDS011;11357;49.990;7.370;2022-07-06T08:37:09;1143.07;;;672.77;;
22378;SDS011;11357;49.990;7.370;2022-07-06T08:39:34;1023.42;;;600.75;;
22378;SDS011;11357;49.990;7.370;2022-07-06T08:42:00;1999.90;;;731.10;;
22378;SDS011;11357;49.990;7.370;2022-07-06T08:44:27;1054.30;;;662.43;;
22378;SDS011;11357;49.990;7.370;2022-07-06T08:46:54;1626.13;;;777.80;;
22378;SDS011;11357;49.990;7.370;2022-07-06T08:49:23;360.42;;;316.23;;
22378;SDS011;11357;49.990;7.370;2022-07-06T08:51:51;1768.03;;;732.07;;
22378;SDS011;11357;49.990;7.370;2022-07-06T08:54:17;641.30;;;377.80;;
22378;SDS011;11357;49.990;7.370;2022-07-06T08:56:45;1830.77;;;804.47;;
22378;SDS011;11357;49.990;7.370;2022-07-06T08:59:11;1839.63;;;657.60;;
22378;SDS011;11357;49.990;7.370;2022-07-06T09:01:38;1999.90;;;607.08;;
22378;SDS011;11357;49.990;7.370;2022-07-06T09:04:05;76.27;;;72.17;;
22378;SDS011;11357;49.990;7.370;2022-07-06T09:06:32;1632.37;;;614.50;;
22378;SDS011;11357;49.990;7.370;2022-07-06T09:08:58;1999.90;;;535.90;;
22378;SDS011;11357;49.990;7.370;2022-07-06T09:11:25;43.08;;;38.85;;
22378;SDS011;11357;49.990;7.370;2022-07-06T09:13:51;6.25;;;5.47;;
22378;SDS011;11357;49.990;7.370;2022-07-06T09:16:17;4.93;;;4.57;;
22378;SDS011;11357;49.990;7.370;2022-07-06T09:18:43;371.47;;;116.63;;
22378;SDS011;11357;49.990;7.370;2022-07-06T09:21:10;592.03;;;264.00;;
22378;SDS011;11357;49.990;7.370;2022-07-06T09:23:36;17.52;;;15.43;;
22378;SDS011;11357;49.990;7.370;2022-07-06T09:26:03;13.82;;;12.77;;
22378;SDS011;11357;49.990;7.370;2022-07-06T09:28:43;7.15;;;6.47;;
22378;SDS011;11357;49.990;7.370;2022-07-06T09:31:10;8.40;;;7.57;;
22378;SDS011;11357;49.990;7.370;2022-07-06T09:33:36;6.78;;;2.42;;
22378;SDS011;11357;49.990;7.370;2022-07-06T09:36:03;20.42;;;19.02;;
22378;SDS011;11357;49.990;7.370;2022-07-06T09:38:30;5.18;;;2.50;;
22378;SDS011;11357;49.990;7.370;2022-07-06T09:40:56;2.53;;;2.20;;
22378;SDS011;11357;49.990;7.370;2022-07-06T09:43:24;1.95;;;1.70;;
22378;SDS011;11357;49.990;7.370;2022-07-06T09:45:54;2.40;;;2.20;;
22378;SDS011;11357;49.990;7.370;2022-07-06T09:48:24;7.40;;;1.75;;
22378;SDS011;11357;49.990;7.370;2022-07-06T09:50:55;16.88;;;14.35;;
22378;SDS011;11357;49.990;7.370;2022-07-06T09:53:27;4.88;;;2.50;;
22378;SDS011;11357;49.990;7.370;2022-07-06T09:55:54;4.88;;;4.05;;
22378;SDS011;11357;49.990;7.370;2022-07-06T09:58:21;7.03;;;6.18;;
22378;SDS011;11357;49.990;7.370;2022-07-06T10:00:47;8.05;;;7.60;;
22378;SDS011;11357;49.990;7.370;2022-07-06T10:03:14;1.95;;;1.17;;
22378;SDS011;11357;49.990;7.370;2022-07-06T10:05:42;7.55;;;1.90;;
22378;SDS011;11357;49.990;7.370;2022-07-06T10:08:11;3.63;;;1.52;;
22378;SDS011;11357;49.990;7.370;2022-07-06T10:10:37;4.55;;;2.22;;
22378;SDS011;11357;49.990;7.370;2022-07-06T10:13:04;9.38;;;5.45;;
22378;SDS011;11357;49.990;7.370;2022-07-06T10:15:31;4.65;;;2.72;;
22378;SDS011;11357;49.990;7.370;2022-07-06T10:18:02;4.82;;;1.90;;
22378;SDS011;11357;49.990;7.370;2022-07-06T10:20:33;5.88;;;3.15;;
22378;SDS011;11357;49.990;7.370;2022-07-06T10:23:07;195.77;;;179.52;;
22378;SDS011;11357;49.990;7.370;2022-07-06T10:25:34;6.10;;;5.38;;
22378;SDS011;11357;49.990;7.370;2022-07-06T10:28:00;7.82;;;7.22;;
22378;SDS011;11357;49.990;7.370;2022-07-06T10:30:27;14.10;;;12.90;;
22378;SDS011;11357;49.990;7.370;2022-07-06T10:32:54;47.47;;;43.40;;
22378;SDS011;11357;49.990;7.370;2022-07-06T10:35:23;30.42;;;27.50;;
22378;SDS011;11357;49.990;7.370;2022-07-06T10:38:04;10.35;;;9.50;;
22378;SDS011;11357;49.990;7.370;2022-07-06T10:40:32;4.40;;;3.72;;
22378;SDS011;11357;49.990;7.370;2022-07-06T10:43:17;3.22;;;1.50;;
22378;SDS011;11357;49.990;7.370;2022-07-06T10:50:38;4.20;;;3.80;;
22378;SDS011;11357;49.990;7.370;2022-07-06T10:53:11;4.78;;;2.00;;
22378;SDS011;11357;49.990;7.370;2022-07-06T10:55:45;11.02;;;9.95;;
22378;SDS011;11357;49.990;7.370;2022-07-06T10:58:14;10.10;;;7.57;;
22378;SDS011;11357;49.990;7.370;2022-07-06T11:06:54;3.13;;;0.95;;
22378;SDS011;11357;49.990;7.370;2022-07-06T11:09:00;5.93;;;1.13;;
22378;SDS011;11357;49.990;7.370;2022-07-06T11:14:20;5.55;;;1.05;;
22378;SDS011;11357;49.990;7.370;2022-07-06T11:24:24;2.35;;;0.70;;
22378;SDS011;11357;49.990;7.370;2022-07-06T11:26:54;2.03;;;1.35;;
22378;SDS011;11357;49.990;7.370;2022-07-06T11:29:23;1.65;;;1.00;;
22378;SDS011;11357;49.990;7.370;2022-07-06T11:31:51;2.83;;;0.90;;
22378;SDS011;11357;49.990;7.370;2022-07-06T11:34:19;3.92;;;1.08;;
22378;SDS011;11357;49.990;7.370;2022-07-06T11:36:47;9.68;;;0.90;;
22378;SDS011;11357;49.990;7.370;2022-07-06T11:39:13;9.25;;;1.00;;
22378;SDS011;11357;49.990;7.370;2022-07-06T11:41:40;2.63;;;0.80;;
22378;SDS011;11357;49.990;7.370;2022-07-06T11:44:06;5.70;;;0.88;;
22378;SDS011;11357;49.990;7.370;2022-07-06T11:46:32;1.55;;;0.80;;
22378;SDS011;11357;49.990;7.370;2022-07-06T11:49:00;1.45;;;0.68;;
22378;SDS011;11357;49.990;7.370;2022-07-06T11:51:34;3.90;;;0.88;;
22378;SDS011;11357;49.990;7.370;2022-07-06T11:54:16;6.47;;;2.00;;
22378;SDS011;11357;49.990;7.370;2022-07-06T11:56:50;1.38;;;0.75;;
22378;SDS011;11357;49.990;7.370;2022-07-06T11:59:24;2.30;;;0.80;;
22378;SDS011;11357;49.990;7.370;2022-07-06T12:02:24;7.22;;;1.20;;
22378;SDS011;11357;49.990;7.370;2022-07-06T12:04:44;4.35;;;1.02;;
22378;SDS011;11357;49.990;7.370;2022-07-06T12:07:14;2.05;;;0.80;;
22378;SDS011;11357;49.990;7.370;2022-07-06T12:09:44;1.15;;;0.60;;
22378;SDS011;11357;49.990;7.370;2022-07-06T12:12:12;2.85;;;1.00;;
22378;SDS011;11357;49.990;7.370;2022-07-06T12:14:38;4.35;;;0.63;;
22378;SDS011;11357;49.990;7.370;2022-07-06T12:17:09;1.75;;;0.75;;
22378;SDS011;11357;49.990;7.370;2022-07-06T12:19:39;1.23;;;0.68;;
22378;SDS011;11357;49.990;7.370;2022-07-06T12:22:06;10.65;;;1.05;;
22378;SDS011;11357;49.990;7.370;2022-07-06T12:24:33;4.63;;;0.90;;
22378;SDS011;11357;49.990;7.370;2022-07-06T12:27:10;3.55;;;0.82;;
22378;SDS011;11357;49.990;7.370;2022-07-06T12:29:37;1.30;;;0.77;;
22378;SDS011;11357;49.990;7.370;2022-07-06T12:32:03;2.42;;;0.88;;
22378;SDS011;11357;49.990;7.370;2022-07-06T12:34:30;1.00;;;0.68;;
22378;SDS011;11357;49.990;7.370;2022-07-06T12:36:59;3.22;;;1.00;;
22378;SDS011;11357;49.990;7.370;2022-07-06T12:39:39;2.70;;;0.70;;
22378;SDS011;11357;49.990;7.370;2022-07-06T12:42:07;5.60;;;5.10;;
22378;SDS011;11357;49.990;7.370;2022-07-06T12:44:35;3.45;;;1.15;;
22378;SDS011;11357;49.990;7.370;2022-07-06T12:47:11;4.60;;;1.15;;
22378;SDS011;11357;49.990;7.370;2022-07-06T12:49:38;2.83;;;0.80;;
22378;SDS011;11357;49.990;7.370;2022-07-06T12:52:08;1.75;;;0.55;;
22378;SDS011;11357;49.990;7.370;2022-07-06T12:54:42;2.03;;;0.80;;
22378;SDS011;11357;49.990;7.370;2022-07-06T12:57:22;2.83;;;1.00;;
22378;SDS011;11357;49.990;7.370;2022-07-06T13:02:34;2.10;;;0.70;;
22378;SDS011;11357;49.990;7.370;2022-07-06T13:41:12;6.50;;;1.05;;
22378;SDS011;11357;49.990;7.370;2022-07-06T13:43:38;2.53;;;0.80;;
22378;SDS011;11357;49.990;7.370;2022-07-06T13:46:04;2.55;;;0.90;;
22378;SDS011;11357;49.990;7.370;2022-07-06T13:48:30;0.90;;;0.77;;
22378;SDS011;11357;49.990;7.370;2022-07-06T13:50:56;3.30;;;0.80;;
22378;SDS011;11357;49.990;7.370;2022-07-06T13:53:22;2.42;;;1.05;;
22378;SDS011;11357;49.990;7.370;2022-07-06T13:55:48;2.65;;;0.82;;
22378;SDS011;11357;49.990;7.370;2022-07-06T13:58:14;1.85;;;0.90;;
22378;SDS011;11357;49.990;7.370;2022-07-06T14:00:40;2.95;;;1.17;;
22378;SDS011;11357;49.990;7.370;2022-07-06T14:03:05;2.72;;;1.23;;
22378;SDS011;11357;49.990;7.370;2022-07-06T14:05:31;4.63;;;1.17;;
22378;SDS011;11357;49.990;7.370;2022-07-06T14:07:57;3.45;;;1.33;;
22378;SDS011;11357;49.990;7.370;2022-07-06T14:10:23;2.97;;;1.42;;
22378;SDS011;11357;49.990;7.370;2022-07-06T14:12:49;4.28;;;1.05;;
22378;SDS011;11357;49.990;7.370;2022-07-06T14:15:15;3.35;;;0.90;;
22378;SDS011;11357;49.990;7.370;2022-07-06T14:17:40;4.05;;;0.93;;
22378;SDS011;11357;49.990;7.370;2022-07-06T14:20:06;1.65;;;1.00;;
22378;SDS011;11357;49.990;7.370;2022-07-06T14:22:32;2.80;;;0.90;;
22378;SDS011;11357;49.990;7.370;2022-07-06T14:24:58;1.42;;;1.08;;
22378;SDS011;11357;49.990;7.370;2022-07-06T14:27:24;2.22;;;0.80;;
22378;SDS011;11357;49.990;7.370;2022-07-06T14:29:50;2.10;;;1.10;;
22378;SDS011;11357;49.990;7.370;2022-07-06T14:32:16;1.92;;;0.90;;
22378;SDS011;11357;49.990;7.370;2022-07-06T14:34:41;1.55;;;0.90;;
22378;SDS011;11357;49.990;7.370;2022-07-06T14:37:07;2.88;;;1.95;;
22378;SDS011;11357;49.990;7.370;2022-07-06T14:39:33;3.72;;;0.95;;
22378;SDS011;11357;49.990;7.370;2022-07-06T14:41:59;5.60;;;3.45;;
22378;SDS011;11357;49.990;7.370;2022-07-06T14:44:27;3.28;;;1.10;;
22378;SDS011;11357;49.990;7.370;2022-07-06T14:46:53;3.45;;;0.95;;
22378;SDS011;11357;49.990;7.370;2022-07-06T14:49:18;8.02;;;1.30;;
22378;SDS011;11357;49.990;7.370;2022-07-06T14:51:51;2.70;;;0.93;;
22378;SDS011;11357;49.990;7.370;2022-07-06T14:54:17;1.67;;;0.93;;
22378;SDS011;11357;49.990;7.370;2022-07-06T14:56:42;1.27;;;1.10;;
22378;SDS011;11357;49.990;7.370;2022-07-06T14:59:08;3.30;;;1.30;;
22378;SDS011;11357;49.990;7.370;2022-07-06T15:01:34;3.13;;;2.08;;
22378;SDS011;11357;49.990;7.370;2022-07-06T15:03:59;3.22;;;1.13;;
22378;SDS011;11357;49.990;7.370;2022-07-06T15:06:25;3.92;;;2.30;;
22378;SDS011;11357;49.990;7.370;2022-07-06T15:08:51;6.18;;;3.95;;
22378;SDS011;11357;49.990;7.370;2022-07-06T15:11:16;3.13;;;1.08;;
22378;SDS011;11357;49.990;7.370;2022-07-06T15:13:42;5.00;;;1.77;;
22378;SDS011;11357;49.990;7.370;2022-07-06T15:16:08;3.17;;;1.60;;
22378;SDS011;11357;49.990;7.370;2022-07-06T15:18:33;2.22;;;0.90;;
22378;SDS011;11357;49.990;7.370;2022-07-06T15:20:59;2.00;;;1.15;;
22378;SDS011;11357;49.990;7.370;2022-07-06T15:23:25;2.25;;;2.08;;
22378;SDS011;11357;49.990;7.370;2022-07-06T15:25:52;3.65;;;1.95;;
22378;SDS011;11357;49.990;7.370;2022-07-06T15:28:19;2.42;;;2.15;;
22378;SDS011;11357;49.990;7.370;2022-07-06T15:30:45;2.78;;;2.15;;
22378;SDS011;11357;49.990;7.370;2022-07-06T15:33:11;5.90;;;5.45;;
22378;SDS011;11357;49.990;7.370;2022-07-06T15:35:36;3.70;;;1.33;;
22378;SDS011;11357;49.990;7.370;2022-07-06T15:38:02;3.15;;;1.23;;
22378;SDS011;11357;49.990;7.370;2022-07-06T15:40:28;2.95;;;1.65;;
22378;SDS011;11357;49.990;7.370;2022-07-06T15:42:59;4.78;;;1.17;;
22378;SDS011;11357;49.990;7.370;2022-07-06T15:45:24;4.25;;;1.15;;
22378;SDS011;11357;49.990;7.370;2022-07-06T15:47:51;2.33;;;1.05;;
22378;SDS011;11357;49.990;7.370;2022-07-06T15:50:17;4.88;;;1.30;;
22378;SDS011;11357;49.990;7.370;2022-07-06T15:52:45;3.60;;;1.25;;
22378;SDS011;11357;49.990;7.370;2022-07-06T15:55:11;3.08;;;0.90;;
22378;SDS011;11357;49.990;7.370;2022-07-06T15:57:36;2.25;;;1.00;;
22378;SDS011;11357;49.990;7.370;2022-07-06T16:00:03;2.08;;;1.23;;
22378;SDS011;11357;49.990;7.370;2022-07-06T16:02:29;3.72;;;0.90;;
22378;SDS011;11357;49.990;7.370;2022-07-06T16:04:55;3.17;;;0.95;;
22378;SDS011;11357;49.990;7.370;2022-07-06T16:07:20;7.47;;;1.17;;
22378;SDS011;11357;49.990;7.370;2022-07-06T16:09:46;4.78;;;2.70;;
22378;SDS011;11357;49.990;7.370;2022-07-06T16:12:12;2.05;;;0.88;;
22378;SDS011;11357;49.990;7.370;2022-07-06T16:14:37;2.20;;;0.93;;
22378;SDS011;11357;49.990;7.370;2022-07-06T16:17:03;2.35;;;1.35;;
22378;SDS011;11357;49.990;7.370;2022-07-06T16:19:29;1.95;;;1.30;;
22378;SDS011;11357;49.990;7.370;2022-07-06T16:21:55;2.90;;;1.00;;
22378;SDS011;11357;49.990;7.370;2022-07-06T16:24:20;3.17;;;1.20;;
22378;SDS011;11357;49.990;7.370;2022-07-06T16:26:46;1.98;;;1.10;;
22378;SDS011;11357;49.990;7.370;2022-07-06T16:29:12;1.55;;;0.90;;
22378;SDS011;11357;49.990;7.370;2022-07-06T16:31:37;2.28;;;0.82;;
22378;SDS011;11357;49.990;7.370;2022-07-06T16:34:03;2.50;;;0.80;;
22378;SDS011;11357;49.990;7.370;2022-07-06T16:36:29;4.53;;;0.88;;
22378;SDS011;11357;49.990;7.370;2022-07-06T16:38:55;5.68;;;1.00;;
22378;SDS011;11357;49.990;7.370;2022-07-06T16:41:20;3.78;;;1.08;;
22378;SDS011;11357;49.990;7.370;2022-07-06T16:43:46;1.75;;;1.58;;
22378;SDS011;11357;49.990;7.370;2022-07-06T16:46:14;1.67;;;0.93;;
22378;SDS011;11357;49.990;7.370;2022-07-06T16:48:39;4.32;;;0.88;;
22378;SDS011;11357;49.990;7.370;2022-07-06T16:51:05;3.42;;;1.00;;
22378;SDS011;11357;49.990;7.370;2022-07-06T16:53:32;3.13;;;1.45;;
22378;SDS011;11357;49.990;7.370;2022-07-06T16:55:58;2.50;;;0.80;;